Time;durP1;ratioP1;P1;durP2;ratioP2;P2;SDS_P1;SDS_P2;PMS_P1;PMS_P2;Temp;Humidity;BMP_temperature;BMP_pressure;BME280_temperature;BME280_humidity;BME280_pressure;Samples;Min_cycle;Max_cycle;Signal;HPM_P1;HPM_P2
2022/08/18 00:01:42;;;;;;;9.47;8.47;;;23.10;99.90;;;;;;5011317;28;20465;-52
2022/08/18 00:04:09;;;;;;;10.40;9.33;;;23.10;99.90;;;;;;5018733;28;20492;-51
2022/08/18 00:06:36;;;;;;;9.97;8.87;;;23.10;99.90;;;;;;5016967;28;20482;-51
2022/08/18 00:09:06;;;;;;;10.53;9.53;;;23.00;99.90;;;;;;5012108;28;20526;-52
2022/08/18 00:11:35;;;;;;;10.87;9.00;;;23.00;99.90;;;;;;5011660;28;20503;-52
2022/08/18 00:14:02;;;;;;;21.90;9.10;;;22.90;99.90;;;;;;5013178;28;20488;-52
2022/08/18 00:16:29;;;;;;;12.97;8.50;;;22.90;99.90;;;;;;5022748;28;20455;-52
2022/08/18 00:18:57;;;;;;;18.30;9.60;;;22.80;99.90;;;;;;5015652;28;20953;-52
2022/08/18 00:21:23;;;;;;;10.20;9.23;;;22.80;99.90;;;;;;5005189;28;20518;-52
2022/08/18 00:23:50;;;;;;;10.00;8.50;;;22.80;99.90;;;;;;5016510;28;20517;-52
2022/08/18 00:26:16;;;;;;;9.73;8.93;;;22.70;99.90;;;;;;5015769;28;20463;-53
2022/08/18 00:28:43;;;;;;;9.23;8.37;;;22.70;99.90;;;;;;5016012;28;20546;-52
2022/08/18 00:31:10;;;;;;;12.77;9.40;;;22.70;99.90;;;;;;5021110;28;20872;-52
2022/08/18 00:33:36;;;;;;;10.70;9.70;;;22.70;99.90;;;;;;5011277;28;20534;-53
2022/08/18 00:36:05;;;;;;;12.33;9.63;;;22.60;99.90;;;;;;5013811;28;20486;-53
2022/08/18 00:38:31;;;;;;;9.40;8.60;;;22.60;99.90;;;;;;5013482;28;20517;-51
2022/08/18 00:40:58;;;;;;;10.43;8.70;;;22.60;99.90;;;;;;5008403;28;20945;-52
2022/08/18 00:43:31;;;;;;;10.50;9.50;;;22.50;99.90;;;;;;5012207;28;20464;-51
2022/08/18 00:45:59;;;;;;;16.17;10.87;;;22.50;99.90;;;;;;5012263;28;20460;-52
2022/08/18 00:48:26;;;;;;;9.83;8.83;;;22.50;99.90;;;;;;5016461;28;20489;-52
2022/08/18 00:50:55;;;;;;;15.33;9.57;;;22.50;99.90;;;;;;5017749;28;20472;-53
2022/08/18 00:53:28;;;;;;;9.90;8.90;;;22.50;99.90;;;;;;5010657;28;20459;-51
2022/08/18 00:55:56;;;;;;;11.97;8.20;;;22.40;99.90;;;;;;5013435;28;20486;-51
2022/08/18 00:58:29;;;;;;;12.10;8.20;;;22.30;99.90;;;;;;5022300;28;20459;-51
2022/08/18 01:00:56;;;;;;;9.73;8.73;;;22.30;99.90;;;;;;5011097;28;20518;-52
2022/08/18 01:03:23;;;;;;;10.03;9.20;;;22.30;99.90;;;;;;5007691;28;20957;-51
2022/08/18 01:05:56;;;;;;;9.90;8.80;;;22.20;99.90;;;;;;5011872;28;20467;-51
2022/08/18 01:08:25;;;;;;;9.87;8.87;;;22.20;99.90;;;;;;5006885;28;20518;-52
2022/08/18 01:10:52;;;;;;;11.40;10.30;;;22.10;99.90;;;;;;5010062;28;20513;-52
2022/08/18 01:13:19;;;;;;;10.50;9.03;;;22.10;99.90;;;;;;5008793;28;20495;-51
2022/08/18 01:15:46;;;;;;;11.83;9.63;;;22.00;99.90;;;;;;5011634;28;20463;-52
2022/08/18 01:23:55;;;;;;;12.33;9.87;;;21.80;99.90;;;;;;5015953;28;20482;-51
2022/08/18 01:26:23;;;;;;;10.43;9.43;;;21.80;99.90;;;;;;5022554;28;20464;-51
2022/08/18 01:28:51;;;;;;;10.00;9.00;;;21.70;99.90;;;;;;5012300;28;20498;-51
2022/08/18 01:31:36;;;;;;;9.90;8.90;;;21.60;99.90;;;;;;5009211;28;20474;-51
2022/08/18 01:34:03;;;;;;;11.50;9.23;;;21.50;99.90;;;;;;5008502;28;20849;-52
2022/08/18 01:36:31;;;;;;;13.97;9.50;;;21.50;99.90;;;;;;5008216;28;20542;-52
2022/08/18 01:38:59;;;;;;;10.90;9.90;;;21.40;99.90;;;;;;5008563;28;20487;-52
2022/08/18 01:41:26;;;;;;;10.63;9.63;;;21.40;99.90;;;;;;5015746;28;20491;-51
2022/08/18 01:43:53;;;;;;;10.67;9.67;;;21.30;99.90;;;;;;5007982;28;20483;-52
2022/08/18 01:46:20;;;;;;;10.30;9.40;;;21.30;99.90;;;;;;5009306;28;20452;-52
2022/08/18 01:48:48;;;;;;;10.67;9.57;;;21.20;99.90;;;;;;5013225;28;20487;-53
2022/08/18 01:51:15;;;;;;;12.93;9.30;;;21.20;99.90;;;;;;5009607;28;20467;-52
2022/08/18 01:53:42;;;;;;;10.87;9.80;;;21.20;99.90;;;;;;5009154;28;20487;-52
2022/08/18 01:56:10;;;;;;;10.40;9.50;;;21.10;99.90;;;;;;5019101;28;20513;-52
2022/08/18 01:58:37;;;;;;;10.83;9.70;;;21.10;99.90;;;;;;5011868;28;20492;-51
2022/08/18 02:01:04;;;;;;;15.20;9.80;;;21.00;99.90;;;;;;5012832;28;20471;-53
2022/08/18 02:03:35;;;;;;;12.33;10.33;;;21.00;99.90;;;;;;5009274;28;20463;-52
2022/08/18 02:06:03;;;;;;;14.23;9.90;;;20.90;99.90;;;;;;5010344;28;20549;-51
2022/08/18 02:08:30;;;;;;;10.97;9.93;;;20.90;99.90;;;;;;5008395;28;20549;-52
2022/08/18 02:10:58;;;;;;;23.77;10.80;;;20.90;99.90;;;;;;5010321;28;20495;-53
2022/08/18 02:13:26;;;;;;;13.10;9.70;;;20.80;99.90;;;;;;5002277;28;20463;-52
2022/08/18 02:15:53;;;;;;;12.60;10.07;;;20.80;99.90;;;;;;5007889;28;20870;-51
2022/08/18 02:18:26;;;;;;;10.67;9.63;;;20.70;91.20;;;;;;5013239;28;21024;-53
2022/08/18 02:20:53;;;;;;;17.17;11.30;;;20.60;86.60;;;;;;5008799;28;20466;-51
2022/08/18 02:23:20;;;;;;;15.00;10.87;;;20.60;88.40;;;;;;5011356;28;20491;-53
2022/08/18 02:25:46;;;;;;;11.40;10.20;;;20.60;88.40;;;;;;5018393;28;20494;-52
2022/08/18 02:28:13;;;;;;;13.93;10.97;;;20.60;82.80;;;;;;5008769;28;21020;-53
2022/08/18 02:30:41;;;;;;;11.43;10.37;;;20.60;85.50;;;;;;5009639;28;21063;-52
2022/08/18 02:33:09;;;;;;;12.10;10.43;;;20.50;83.80;;;;;;5018597;28;20463;-52
2022/08/18 02:35:36;;;;;;;10.90;9.83;;;20.40;85.20;;;;;;5015983;28;20475;-52
2022/08/18 02:38:05;;;;;;;12.33;10.53;;;20.40;83.10;;;;;;5011486;28;20456;-53
2022/08/18 02:40:32;;;;;;;10.70;9.37;;;20.40;85.00;;;;;;5015535;28;20529;-52
2022/08/18 02:43:00;;;;;;;13.60;10.77;;;20.40;87.20;;;;;;5012614;28;20977;-53
2022/08/18 02:45:26;;;;;;;12.33;11.13;;;20.40;86.90;;;;;;5012043;28;20483;-52
2022/08/18 02:47:56;;;;;;;18.43;10.70;;;20.40;84.10;;;;;;5012600;28;20519;-52
2022/08/18 02:50:24;;;;;;;12.30;9.47;;;20.30;83.00;;;;;;5015058;28;20550;-51
2022/08/18 02:52:50;;;;;;;11.20;10.00;;;20.20;86.60;;;;;;5014664;28;20464;-52
2022/08/18 02:55:17;;;;;;;15.00;10.57;;;20.20;83.10;;;;;;5008060;28;20518;-52
2022/08/18 02:57:45;;;;;;;14.23;10.23;;;20.20;82.70;;;;;;5010120;28;20490;-52
2022/08/18 03:00:14;;;;;;;11.07;9.87;;;20.20;79.40;;;;;;5013245;28;20742;-52
2022/08/18 03:02:44;;;;;;;13.80;11.00;;;20.10;79.00;;;;;;5019955;28;20468;-52
2022/08/18 03:05:13;;;;;;;13.30;11.10;;;20.10;71.00;;;;;;5010847;28;20519;-51
2022/08/18 03:07:39;;;;;;;11.73;10.53;;;20.00;52.20;;;;;;5013467;28;20511;-52
2022/08/18 03:10:07;;;;;;;14.27;10.33;;;20.00;58.00;;;;;;5010627;28;20561;-53
2022/08/18 03:12:33;;;;;;;11.00;10.10;;;20.00;56.00;;;;;;5022064;28;20565;-52
2022/08/18 03:15:02;;;;;;;14.00;11.43;;;19.90;58.20;;;;;;5015088;28;20506;-52
2022/08/18 03:17:30;;;;;;;14.83;11.00;;;19.90;59.00;;;;;;5019602;28;20559;-52
2022/08/18 03:19:57;;;;;;;10.60;9.70;;;19.90;57.60;;;;;;5011208;28;20463;-52
2022/08/18 03:22:25;;;;;;;23.23;12.30;;;19.80;57.40;;;;;;5010106;28;20487;-52
2022/08/18 03:24:51;;;;;;;12.13;11.00;;;19.70;48.80;;;;;;5015543;28;20515;-52
2022/08/18 03:27:18;;;;;;;11.40;10.27;;;19.70;45.40;;;;;;5009592;28;20467;-52
2022/08/18 03:29:44;;;;;;;13.00;10.90;;;19.70;46.40;;;;;;5010773;28;20534;-52
2022/08/18 03:32:11;;;;;;;11.07;9.67;;;19.70;42.90;;;;;;5012732;28;20522;-51
2022/08/18 03:34:37;;;;;;;13.10;11.57;;;19.60;39.90;;;;;;5011890;28;20515;-52
2022/08/18 03:37:04;;;;;;;11.43;10.33;;;19.60;33.30;;;;;;5017651;28;20451;-52
2022/08/18 03:39:32;;;;;;;13.00;10.97;;;19.50;34.60;;;;;;5013899;28;20925;-52
2022/08/18 03:41:59;;;;;;;14.43;11.40;;;19.50;23.50;;;;;;5020578;28;20482;-53
2022/08/18 03:44:29;;;;;;;13.13;11.77;;;19.50;21.00;;;;;;5024015;28;20537;-52
2022/08/18 03:46:56;;;;;;;12.80;11.67;;;19.50;22.40;;;;;;5013140;28;20475;-52
2022/08/18 03:49:24;;;;;;;11.90;10.80;;;19.40;20.90;;;;;;5018822;28;20482;-52
2022/08/18 03:51:51;;;;;;;12.97;11.60;;;19.30;99.90;;;;;;5012235;28;20551;-52
2022/08/18 03:54:18;;;;;;;12.57;11.37;;;19.40;99.90;;;;;;5016537;28;20493;-52
2022/08/18 03:56:48;;;;;;;12.93;11.37;;;19.40;99.90;;;;;;5017488;28;20495;-52
2022/08/18 03:59:17;;;;;;;13.07;11.10;;;19.40;99.90;;;;;;5015257;28;20467;-52
2022/08/18 04:01:44;;;;;;;13.10;11.80;;;19.30;99.90;;;;;;5008848;28;21051;-51
2022/08/18 04:04:13;;;;;;;11.77;10.60;;;19.30;99.90;;;;;;5012097;28;20526;-51
2022/08/18 04:06:43;;;;;;;11.60;10.60;;;19.30;99.90;;;;;;5011974;28;20468;-52
2022/08/18 04:09:12;;;;;;;12.30;11.10;;;19.30;99.90;;;;;;5020400;28;20911;-52
2022/08/18 04:11:41;;;;;;;13.53;12.17;;;19.20;99.90;;;;;;5019016;28;20495;-51
2022/08/18 04:14:10;;;;;;;12.30;11.20;;;19.30;99.90;;;;;;5005331;28;20882;-51
2022/08/18 04:16:38;;;;;;;13.63;12.23;;;19.20;99.90;;;;;;5022444;28;20502;-52
2022/08/18 04:19:05;;;;;;;11.23;10.33;;;19.20;99.90;;;;;;5008680;28;20549;-51
2022/08/18 04:21:32;;;;;;;12.03;10.70;;;19.30;99.90;;;;;;5016973;28;20487;-52
2022/08/18 04:24:03;;;;;;;12.97;11.70;;;19.30;99.90;;;;;;5014708;28;20479;-52
2022/08/18 04:26:31;;;;;;;12.23;11.13;;;19.30;99.90;;;;;;5014630;28;20463;-52
2022/08/18 04:28:59;;;;;;;13.33;11.00;;;19.30;99.90;;;;;;5015379;28;21020;-52
2022/08/18 04:31:28;;;;;;;13.30;12.00;;;19.30;99.90;;;;;;5015538;28;20664;-52
2022/08/18 04:33:55;;;;;;;14.30;11.40;;;19.30;99.90;;;;;;5014407;28;20491;-52
2022/08/18 04:36:22;;;;;;;12.27;11.10;;;19.30;99.90;;;;;;5012895;28;20547;-53
2022/08/18 04:38:49;;;;;;;11.93;10.47;;;19.30;99.90;;;;;;5012928;28;20900;-52
2022/08/18 04:41:17;;;;;;;12.50;11.33;;;19.30;99.90;;;;;;5015234;28;20474;-53
2022/08/18 04:43:43;;;;;;;12.90;11.20;;;19.30;99.90;;;;;;5014100;28;20506;-52
2022/08/18 04:46:10;;;;;;;12.67;10.90;;;19.30;99.90;;;;;;5011421;28;20945;-53
2022/08/18 04:48:40;;;;;;;13.27;11.10;;;19.40;99.90;;;;;;5014048;28;20475;-51
2022/08/18 04:51:09;;;;;;;13.30;11.07;;;19.40;99.90;;;;;;5013882;28;20494;-52
2022/08/18 04:53:44;;;;;;;12.73;11.63;;;19.50;99.90;;;;;;5017220;28;20503;-52
2022/08/18 04:56:14;;;;;;;12.33;11.03;;;19.50;99.90;;;;;;5008688;28;20498;-52
2022/08/18 04:58:41;;;;;;;19.30;11.60;;;19.60;99.90;;;;;;5016926;28;20451;-53
2022/08/18 05:01:08;;;;;;;12.50;11.20;;;19.60;99.90;;;;;;5018260;28;20963;-52
2022/08/18 05:03:37;;;;;;;13.07;11.93;;;19.60;99.90;;;;;;5008219;28;20529;-53
2022/08/18 05:06:06;;;;;;;13.80;11.20;;;19.60;99.90;;;;;;5008803;28;20463;-52
2022/08/18 05:08:33;;;;;;;11.60;10.60;;;19.70;99.90;;;;;;5019066;28;20515;-51
2022/08/18 05:10:59;;;;;;;11.20;10.00;;;19.80;99.90;;;;;;5004857;28;20487;-53
2022/08/18 05:13:26;;;;;;;11.70;10.60;;;19.80;84.40;;;;;;5025458;28;20464;-53
2022/08/18 05:15:53;;;;;;;11.50;10.37;;;19.90;78.90;;;;;;5014466;28;20499;-51
2022/08/18 05:18:23;;;;;;;12.97;11.70;;;20.00;99.90;;;;;;5008513;28;20460;-52
2022/08/18 05:20:50;;;;;;;11.23;10.23;;;20.00;20.50;;;;;;5020501;28;20490;-53
2022/08/18 05:23:18;;;;;;;11.80;10.70;;;20.10;20.20;;;;;;5012043;28;20826;-53
2022/08/18 05:25:45;;;;;;;11.97;11.00;;;20.10;25.60;;;;;;5019387;28;20494;-52
2022/08/18 05:28:12;;;;;;;15.40;12.03;;;20.20;25.60;;;;;;5009983;28;20534;-52
2022/08/18 05:30:39;;;;;;;13.23;10.93;;;20.30;26.80;;;;;;5010445;28;20539;-51
2022/08/18 05:33:05;;;;;;;13.37;11.93;;;20.30;32.40;;;;;;5018482;28;20521;-53
2022/08/18 05:35:37;;;;;;;11.83;10.83;;;20.40;39.90;;;;;;5016883;28;20534;-52
2022/08/18 05:38:15;;;;;;;14.57;10.90;;;20.40;46.60;;;;;;5020678;28;20957;-52
2022/08/18 05:40:45;;;;;;;13.30;11.40;;;20.50;48.10;;;;;;5016986;28;20454;-52
2022/08/18 05:43:14;;;;;;;17.03;10.70;;;20.50;50.20;;;;;;5011344;28;20459;-52
2022/08/18 05:45:42;;;;;;;14.50;11.30;;;20.60;50.30;;;;;;5018294;28;21190;-52
2022/08/18 05:48:09;;;;;;;11.97;10.77;;;20.60;58.20;;;;;;5011103;28;20464;-52
2022/08/18 05:50:37;;;;;;;13.27;11.90;;;20.70;66.60;;;;;;5017214;28;20521;-53
2022/08/18 05:53:07;;;;;;;15.13;11.13;;;20.80;67.80;;;;;;5013850;28;20885;-52
2022/08/18 05:58:28;;;;;;;12.97;11.63;;;20.90;73.10;;;;;;4988972;28;20465;-51
2022/08/18 06:00:57;;;;;;;14.13;11.80;;;21.00;76.00;;;;;;5014762;28;20955;-52
2022/08/18 06:03:30;;;;;;;11.93;10.83;;;21.00;78.20;;;;;;5012815;28;20499;-52
2022/08/18 06:06:00;;;;;;;15.20;11.63;;;21.00;79.30;;;;;;5011391;28;20540;-52
2022/08/18 06:08:32;;;;;;;12.67;11.37;;;21.10;77.70;;;;;;5012102;28;20849;-51
2022/08/18 06:10:59;;;;;;;13.17;11.77;;;21.20;74.70;;;;;;5013857;28;20475;-53
2022/08/18 06:13:27;;;;;;;14.23;12.87;;;21.20;90.90;;;;;;5016632;28;20789;-52
2022/08/18 06:16:02;;;;;;;13.70;11.87;;;21.30;89.70;;;;;;5009262;28;20491;-52
2022/08/18 06:18:38;;;;;;;14.57;13.10;;;21.30;91.50;;;;;;5017756;28;20461;-52
2022/08/18 06:21:16;;;;;;;12.20;10.80;;;21.40;91.30;;;;;;5005117;28;20680;-52
2022/08/18 06:23:59;;;;;;;15.87;12.60;;;21.40;87.90;;;;;;5013022;28;20510;-52
2022/08/18 06:26:33;;;;;;;27.73;12.70;;;21.50;89.00;;;;;;5002985;28;20459;-52
2022/08/18 06:29:12;;;;;;;13.90;12.50;;;21.60;93.80;;;;;;5011299;28;20492;-52
2022/08/18 06:31:49;;;;;;;13.77;12.47;;;21.60;99.90;;;;;;5003911;28;20463;-51
2022/08/18 06:34:27;;;;;;;13.57;12.37;;;21.70;99.90;;;;;;5015629;28;20918;-52
2022/08/18 06:36:58;;;;;;;13.10;11.90;;;21.80;99.90;;;;;;5008506;28;20455;-52
2022/08/18 06:39:31;;;;;;;13.73;12.00;;;21.90;99.90;;;;;;5003898;28;20480;-52
2022/08/18 06:41:58;;;;;;;12.80;11.67;;;22.00;99.90;;;;;;5014522;28;20458;-52
2022/08/18 06:44:33;;;;;;;13.43;12.27;;;22.00;99.90;;;;;;5009335;28;20517;-52
2022/08/18 06:47:07;;;;;;;15.40;12.03;;;22.10;99.90;;;;;;5010010;28;20467;-52
2022/08/18 06:49:39;;;;;;;13.50;12.10;;;22.10;99.90;;;;;;5017023;28;20549;-52
2022/08/18 06:52:20;;;;;;;13.57;12.27;;;22.10;99.90;;;;;;5007208;28;20463;-52
2022/08/18 06:54:47;;;;;;;13.03;11.70;;;22.20;99.90;;;;;;5003024;28;20518;-51
2022/08/18 06:57:25;;;;;;;15.40;12.20;;;22.30;99.90;;;;;;5008147;28;20468;-52
2022/08/18 06:59:58;;;;;;;15.97;11.43;;;22.30;99.90;;;;;;5010670;28;20538;-52
2022/08/18 07:02:33;;;;;;;15.63;12.83;;;22.30;99.90;;;;;;5015519;28;20493;-52
2022/08/18 07:05:04;;;;;;;16.20;11.90;;;22.40;99.90;;;;;;5006515;28;20518;-52
2022/08/18 07:07:35;;;;;;;15.43;11.90;;;22.50;99.90;;;;;;5012503;28;20506;-52
2022/08/18 07:10:02;;;;;;;14.63;11.73;;;22.50;99.90;;;;;;5011097;28;20475;-52
2022/08/18 07:12:29;;;;;;;15.10;12.87;;;22.50;99.90;;;;;;5017619;28;20460;-52
2022/08/18 07:15:00;;;;;;;13.77;12.37;;;22.60;99.90;;;;;;5012334;28;20511;-51
2022/08/18 07:17:31;;;;;;;13.37;11.97;;;22.70;99.90;;;;;;5009267;28;20961;-52
2022/08/18 07:20:02;;;;;;;13.53;12.13;;;22.80;99.90;;;;;;5013469;28;20461;-52
2022/08/18 07:22:29;;;;;;;17.63;12.70;;;22.80;99.90;;;;;;5005964;28;20490;-52
2022/08/18 07:24:58;;;;;;;15.77;11.80;;;22.90;99.90;;;;;;5013709;28;20969;-52
2022/08/18 07:27:42;;;;;;;14.80;12.67;;;23.00;99.90;;;;;;5009653;28;20510;-52
2022/08/18 07:30:13;;;;;;;16.33;13.50;;;23.00;99.90;;;;;;5005956;28;20487;-51
2022/08/18 07:32:45;;;;;;;16.70;12.90;;;23.00;99.90;;;;;;5009893;28;20483;-52
2022/08/18 07:35:16;;;;;;;19.30;12.30;;;23.10;99.90;;;;;;5005812;28;21076;-52
2022/08/18 07:37:49;;;;;;;13.70;11.43;;;23.10;99.90;;;;;;5028698;28;20462;-52
2022/08/18 07:40:23;;;;;;;12.23;10.80;;;23.10;99.90;;;;;;5009592;28;20535;-52
2022/08/18 07:42:56;;;;;;;12.50;11.30;;;23.20;99.90;;;;;;5019804;28;20463;-52
2022/08/18 07:45:29;;;;;;;15.33;12.27;;;23.30;99.90;;;;;;5002348;28;20478;-52
2022/08/18 07:48:03;;;;;;;17.00;11.90;;;23.30;99.90;;;;;;5000555;28;20825;-52
2022/08/18 07:50:34;;;;;;;12.50;11.40;;;23.30;99.90;;;;;;5013552;28;20909;-53
2022/08/18 07:53:11;;;;;;;16.97;11.70;;;23.40;99.90;;;;;;5013536;28;20459;-51
2022/08/18 07:55:41;;;;;;;13.63;12.23;;;23.40;99.90;;;;;;5022750;28;20573;-51
2022/08/18 07:58:21;;;;;;;13.47;12.20;;;23.50;99.90;;;;;;5018128;28;20894;-51
2022/08/18 08:00:54;;;;;;;13.63;12.23;;;23.60;99.90;;;;;;5012396;28;20549;-53
2022/08/18 08:03:31;;;;;;;25.93;12.60;;;23.60;99.90;;;;;;5017260;28;20523;-53
2022/08/18 08:06:04;;;;;;;19.53;12.13;;;23.70;99.90;;;;;;5005066;28;20502;-52
2022/08/18 08:08:38;;;;;;;14.03;12.70;;;23.70;99.90;;;;;;5011070;28;20537;-52
2022/08/18 08:11:16;;;;;;;17.60;11.40;;;23.80;99.90;;;;;;5010808;28;20499;-52
2022/08/18 08:13:55;;;;;;;18.43;13.83;;;23.80;99.90;;;;;;5021897;28;20484;-52
2022/08/18 08:16:35;;;;;;;13.30;11.97;;;23.90;99.90;;;;;;5011997;28;20479;-52
2022/08/18 08:19:10;;;;;;;21.73;12.80;;;23.90;99.90;;;;;;5011461;28;20456;-52
2022/08/18 08:21:44;;;;;;;16.97;12.90;;;24.00;99.90;;;;;;5007430;28;20504;-52
2022/08/18 08:24:17;;;;;;;14.90;12.80;;;24.00;99.90;;;;;;5017954;28;20594;-52
2022/08/18 08:26:53;;;;;;;15.10;12.27;;;24.10;25.80;;;;;;5012614;28;20561;-52
2022/08/18 08:29:34;;;;;;;16.40;13.30;;;24.10;28.30;;;;;;5021341;28;20482;-53
2022/08/18 08:32:05;;;;;;;14.33;11.80;;;24.10;33.30;;;;;;5012231;28;20835;-52
2022/08/18 08:34:40;;;;;;;15.03;13.43;;;24.10;40.00;;;;;;5011031;28;20487;-51
2022/08/18 08:37:11;;;;;;;16.40;12.70;;;24.10;47.60;;;;;;5009430;28;20456;-52
2022/08/18 08:39:44;;;;;;;15.27;13.67;;;24.20;54.80;;;;;;5009939;28;20554;-52
2022/08/18 08:42:16;;;;;;;20.30;13.00;;;24.30;55.60;;;;;;5010394;28;20463;-51
2022/08/18 08:44:48;;;;;;;17.77;13.37;;;24.30;49.00;;;;;;5019628;28;20501;-52
2022/08/18 08:47:21;;;;;;;22.27;13.77;;;24.30;43.30;;;;;;5016015;28;20471;-52
2022/08/18 08:49:54;;;;;;;16.70;13.23;;;24.40;43.90;;;;;;5007044;28;20514;-52
2022/08/18 08:52:24;;;;;;;15.30;12.27;;;24.40;39.80;;;;;;5010556;28;20459;-52
2022/08/18 08:54:55;;;;;;;13.97;12.40;;;24.40;48.10;;;;;;5011008;28;20483;-51
2022/08/18 08:57:26;;;;;;;19.87;14.53;;;24.50;44.70;;;;;;5008489;28;20538;-52
2022/08/18 08:59:56;;;;;;;17.80;13.83;;;24.50;47.60;;;;;;5016066;28;20798;-53
2022/08/18 09:02:34;;;;;;;15.03;13.67;;;24.50;54.40;;;;;;5011952;28;20439;-52
2022/08/18 09:05:09;;;;;;;13.93;12.50;;;24.60;60.70;;;;;;5005265;28;20611;-51
2022/08/18 09:07:55;;;;;;;14.07;12.67;;;24.60;59.20;;;;;;5010396;28;20468;-53
2022/08/18 09:10:46;;;;;;;13.77;12.47;;;24.70;63.90;;;;;;5009270;28;20602;-53
2022/08/18 09:13:30;;;;;;;19.33;13.00;;;24.70;61.20;;;;;;5010750;28;20538;-51
2022/08/18 09:16:14;;;;;;;14.70;12.60;;;24.80;56.30;;;;;;5008686;28;20491;-52
2022/08/18 09:18:59;;;;;;;16.13;13.67;;;24.90;55.10;;;;;;5007251;28;20464;-53
2022/08/18 09:21:38;;;;;;;14.40;13.10;;;24.90;70.90;;;;;;5007934;28;20463;-53
2022/08/18 09:24:12;;;;;;;19.97;12.70;;;25.00;61.60;;;;;;5012934;28;20534;-52
2022/08/18 09:26:42;;;;;;;18.10;13.07;;;25.10;52.40;;;;;;5005762;28;20455;-52
2022/08/18 09:29:24;;;;;;;14.80;13.17;;;25.30;54.80;;;;;;5001886;28;20816;-52
2022/08/18 09:32:24;;;;;;;19.30;15.53;;;25.40;62.80;;;;;;5006417;28;20506;-53
2022/08/18 09:35:03;;;;;;;14.43;12.97;;;25.60;62.00;;;;;;5003134;28;20490;-52
2022/08/18 09:37:44;;;;;;;18.90;13.47;;;25.70;67.80;;;;;;5003478;28;20638;-52
2022/08/18 09:43:10;;;;;;;17.27;13.20;;;26.00;78.80;;;;;;5017246;28;20447;-53
2022/08/18 09:45:53;;;;;;;27.63;13.23;;;26.20;95.90;;;;;;5011133;28;20827;-52
2022/08/18 09:48:29;;;;;;;21.27;13.00;;;26.20;86.60;;;;;;5018384;28;20459;-52
2022/08/18 09:51:23;;;;;;;16.70;12.63;;;26.20;81.30;;;;;;5010266;28;20522;-52
2022/08/18 09:54:19;;;;;;;15.50;12.80;;;26.20;91.30;;;;;;5011972;28;20487;-52
2022/08/18 09:57:17;;;;;;;14.90;13.40;;;26.20;85.20;;;;;;5006910;28;20828;-52
2022/08/18 10:00:23;;;;;;;14.40;12.97;;;26.20;76.00;;;;;;4999194;28;20460;-53
2022/08/18 10:03:12;;;;;;;23.87;14.50;;;26.20;76.00;;;;;;5008378;28;20605;-52
2022/08/18 10:05:41;;;;;;;15.40;12.90;;;26.20;79.20;;;;;;4995546;28;21065;-51
2022/08/18 10:08:46;;;;;;;17.17;13.73;;;26.30;80.30;;;;;;5011931;28;20530;-51
2022/08/18 10:11:26;;;;;;;16.07;13.17;;;26.50;84.20;;;;;;5010166;28;20578;-52
2022/08/18 10:14:08;;;;;;;15.57;13.97;;;26.70;87.50;;;;;;5006541;28;20861;-52
2022/08/18 10:16:48;;;;;;;14.23;12.93;;;26.90;95.70;;;;;;5003796;28;20510;-52
2022/08/18 10:19:22;;;;;;;15.37;12.43;;;27.10;86.60;;;;;;5020393;28;20459;-51
2022/08/18 10:22:05;;;;;;;13.67;12.47;;;27.20;89.50;;;;;;5020446;28;21034;-51
2022/08/18 10:24:35;;;;;;;13.70;12.37;;;27.30;87.30;;;;;;5003396;28;20486;-52
2022/08/18 10:27:07;;;;;;;13.67;12.37;;;27.30;98.60;;;;;;5007385;28;20488;-52
2022/08/18 10:29:49;;;;;;;17.70;13.37;;;27.30;99.90;;;;;;5007264;28;20470;-52
2022/08/18 10:32:38;;;;;;;19.07;13.50;;;27.30;99.90;;;;;;5001323;28;20714;-52
2022/08/18 10:35:26;;;;;;;13.50;12.27;;;27.40;99.90;;;;;;5006858;28;20490;-51
2022/08/18 10:37:55;;;;;;;16.20;14.20;;;27.50;99.90;;;;;;5015622;28;20482;-51
2022/08/18 10:40:23;;;;;;;22.83;12.13;;;27.60;99.90;;;;;;5017272;28;20478;-52
2022/08/18 10:42:58;;;;;;;15.93;12.97;;;27.80;99.90;;;;;;4998431;28;20554;-52
2022/08/18 10:45:28;;;;;;;15.30;13.77;;;27.90;99.90;;;;;;5004719;28;21000;-51
2022/08/18 10:48:11;;;;;;;14.60;12.20;;;28.20;99.90;;;;;;5000415;28;20463;-50
2022/08/18 10:50:42;;;;;;;13.33;12.03;;;28.40;99.90;;;;;;5011291;28;20467;-51
2022/08/18 10:53:19;;;;;;;13.23;11.80;;;28.60;99.90;;;;;;4998813;28;20452;-52
2022/08/18 10:55:53;;;;;;;18.23;13.33;;;28.60;99.90;;;;;;5007764;28;20856;-51
2022/08/18 10:58:57;;;;;;;13.43;12.10;;;28.50;99.90;;;;;;5003827;28;20867;-52
2022/08/18 11:02:01;;;;;;;17.67;13.23;;;28.40;99.90;;;;;;4997643;28;20546;-51
2022/08/18 11:04:30;;;;;;;13.93;12.53;;;28.30;99.90;;;;;;4994239;28;20487;-52
2022/08/18 11:07:09;;;;;;;12.10;11.10;;;28.20;99.90;;;;;;5006383;28;20467;-51
2022/08/18 11:09:38;;;;;;;13.90;12.67;;;28.20;99.90;;;;;;5004874;28;22137;-52
2022/08/18 11:12:06;;;;;;;16.93;13.00;;;28.20;99.90;;;;;;5002941;28;20500;-53
2022/08/18 11:14:57;;;;;;;13.20;11.87;;;28.40;99.90;;;;;;4999432;28;20523;-52
2022/08/18 11:17:33;;;;;;;12.60;11.47;;;28.60;99.90;;;;;;5001288;28;20543;-52
2022/08/18 11:20:01;;;;;;;12.37;11.07;;;28.90;99.90;;;;;;5001080;28;20607;-52
2022/08/18 11:22:29;;;;;;;12.77;11.27;;;29.00;99.90;;;;;;5010246;28;20487;-51
2022/08/18 11:24:58;;;;;;;14.43;10.73;;;29.30;99.90;;;;;;5009654;28;20574;-52
2022/08/18 11:27:27;;;;;;;11.27;10.27;;;29.40;99.90;;;;;;5005974;28;20503;-52
2022/08/18 11:29:54;;;;;;;18.13;10.50;;;29.30;99.90;;;;;;5018918;28;20460;-52
2022/08/18 11:32:26;;;;;;;18.83;11.53;;;29.30;99.90;;;;;;5006406;28;20495;-51
2022/08/18 11:35:01;;;;;;;15.20;10.97;;;29.30;99.90;;;;;;5016065;28;20507;-52
2022/08/18 11:37:33;;;;;;;11.00;10.00;;;29.30;99.90;;;;;;5006399;28;20454;-52
2022/08/18 11:40:05;;;;;;;10.43;9.57;;;29.40;99.90;;;;;;5007913;28;20456;-53
2022/08/18 11:42:35;;;;;;;11.53;10.43;;;29.50;99.90;;;;;;5000347;28;20487;-52
2022/08/18 11:45:15;;;;;;;12.17;11.00;;;29.60;99.90;;;;;;5011043;28;21089;-53
2022/08/18 11:48:01;;;;;;;13.47;10.17;;;29.70;99.90;;;;;;5012289;28;20467;-51
2022/08/18 11:50:29;;;;;;;12.50;10.20;;;29.90;99.90;;;;;;5012284;28;20487;-53
2022/08/18 11:52:57;;;;;;;20.90;8.60;;;30.10;99.90;;;;;;5017206;28;20491;-51
2022/08/18 11:55:32;;;;;;;11.70;9.90;;;30.20;99.90;;;;;;5012776;28;20510;-53
2022/08/18 11:57:59;;;;;;;11.20;9.07;;;30.30;99.90;;;;;;5009578;28;20546;-51
2022/08/18 12:00:42;;;;;;;10.27;9.23;;;30.40;99.90;;;;;;5014682;28;20558;-52
2022/08/18 12:03:17;;;;;;;11.40;10.40;;;30.40;99.90;;;;;;5009357;28;20494;-51
2022/08/18 12:05:46;;;;;;;12.10;8.60;;;30.50;99.90;;;;;;5008454;28;20455;-52
2022/08/18 12:08:22;;;;;;;10.20;9.07;;;30.70;99.90;;;;;;5010928;28;20495;-52
2022/08/18 12:11:02;;;;;;;9.53;8.63;;;30.80;99.90;;;;;;5018823;28;20937;-51
2022/08/18 12:13:29;;;;;;;10.63;8.63;;;30.80;99.90;;;;;;5007775;28;20992;-52
2022/08/18 12:16:12;;;;;;;9.63;8.83;;;30.80;99.90;;;;;;5007628;28;20479;-52
2022/08/18 12:18:39;;;;;;;8.97;8.17;;;30.90;99.90;;;;;;5007454;28;20463;-51
2022/08/18 12:21:06;;;;;;;10.30;7.97;;;30.90;99.90;;;;;;5019467;28;20500;-52
2022/08/18 12:23:33;;;;;;;7.43;6.90;;;30.90;99.90;;;;;;5015352;28;20546;-52
2022/08/18 12:26:01;;;;;;;8.80;8.00;;;31.00;99.90;;;;;;5008109;28;20467;-54
2022/08/18 12:28:28;;;;;;;8.67;7.80;;;31.20;99.90;;;;;;5006752;28;21051;-52
2022/08/18 12:30:55;;;;;;;8.93;7.20;;;31.30;99.90;;;;;;5014799;28;20511;-52
2022/08/18 12:33:21;;;;;;;8.80;6.60;;;31.20;99.90;;;;;;5011575;28;21346;-53
2022/08/18 12:35:48;;;;;;;7.77;6.90;;;31.10;99.90;;;;;;5008512;28;20899;-52
2022/08/18 12:38:16;;;;;;;7.33;6.63;;;31.00;99.90;;;;;;5012258;28;20459;-52
2022/08/18 12:40:43;;;;;;;6.70;6.00;;;31.00;99.90;;;;;;5005203;28;21510;-52
2022/08/18 12:43:11;;;;;;;15.97;5.77;;;31.10;99.90;;;;;;5005125;28;20470;-51
2022/08/18 12:45:38;;;;;;;5.90;5.40;;;31.20;99.90;;;;;;5009726;28;21701;-52
2022/08/18 12:48:05;;;;;;;4.80;4.60;;;31.30;99.90;;;;;;5014888;28;20455;-52
2022/08/18 12:50:32;;;;;;;5.70;5.30;;;31.40;99.90;;;;;;5011900;28;21055;-53
2022/08/18 12:52:59;;;;;;;7.80;5.80;;;31.60;99.90;;;;;;5013058;28;20503;-52
2022/08/18 12:55:26;;;;;;;6.67;5.47;;;31.70;99.90;;;;;;5010728;28;20514;-52
2022/08/18 12:57:53;;;;;;;5.70;5.30;;;31.60;99.90;;;;;;5014132;28;20495;-51
2022/08/18 13:00:21;;;;;;;5.40;4.90;;;31.40;99.90;;;;;;5014975;28;20468;-53
2022/08/18 13:02:47;;;;;;;11.17;6.17;;;31.30;99.90;;;;;;5008602;28;21329;-52
2022/08/18 13:05:14;;;;;;;9.70;5.70;;;31.30;99.90;;;;;;5019062;28;20904;-51